sensor_id;sensor_type;location;lat;lon;timestamp;temperature;humidity
20315;DHT22;10315;50.958;13.080;2023-11-19T00:08:00;3.10;99.90
20315;DHT22;10315;50.958;13.080;2023-11-19T00:18:04;3.20;99.90
20315;DHT22;10315;50.958;13.080;2023-11-19T00:28:05;3.40;99.90
20315;DHT22;10315;50.958;13.080;2023-11-19T00:38:08;3.40;99.90
20315;DHT22;10315;50.958;13.080;2023-11-19T00:48:10;3.60;99.90
20315;DHT22;10315;50.958;13.080;2023-11-19T00:58:13;3.70;99.90
20315;DHT22;10315;50.958;13.080;2023-11-19T01:08:14;3.80;99.90
20315;DHT22;10315;50.958;13.080;2023-11-19T01:18:18;3.80;99.90
20315;DHT22;10315;50.958;13.080;2023-11-19T01:28:20;4.00;99.90
20315;DHT22;10315;50.958;13.080;2023-11-19T01:38:23;4.10;99.90
20315;DHT22;10315;50.958;13.080;2023-11-19T01:48:25;4.20;99.90
20315;DHT22;10315;50.958;13.080;2023-11-19T01:58:28;4.30;99.90
20315;DHT22;10315;50.958;13.080;2023-11-19T02:08:32;4.20;99.90
20315;DHT22;10315;50.958;13.080;2023-11-19T02:18:35;4.10;99.90
20315;DHT22;10315;50.958;13.080;2023-11-19T02:28:38;4.10;99.90
20315;DHT22;10315;50.958;13.080;2023-11-19T02:38:40;4.10;99.90
20315;DHT22;10315;50.958;13.080;2023-11-19T02:48:43;4.20;99.90
20315;DHT22;10315;50.958;13.080;2023-11-19T02:58:46;4.30;99.90
20315;DHT22;10315;50.958;13.080;2023-11-19T03:08:50;4.20;99.90
20315;DHT22;10315;50.958;13.080;2023-11-19T03:18:53;4.20;99.90
20315;DHT22;10315;50.958;13.080;2023-11-19T03:28:56;4.30;99.90
20315;DHT22;10315;50.958;13.080;2023-11-19T03:38:58;4.40;99.90
20315;DHT22;10315;50.958;13.080;2023-11-19T03:49:01;4.40;99.90
20315;DHT22;10315;50.958;13.080;2023-11-19T03:59:04;4.50;99.90
20315;DHT22;10315;50.958;13.080;2023-11-19T04:09:07;4.60;99.90
20315;DHT22;10315;50.958;13.080;2023-11-19T04:19:09;4.60;99.90
20315;DHT22;10315;50.958;13.080;2023-11-19T04:29:13;4.60;99.90
20315;DHT22;10315;50.958;13.080;2023-11-19T04:39:17;4.60;99.90
20315;DHT22;10315;50.958;13.080;2023-11-19T04:49:20;4.60;99.90
20315;DHT22;10315;50.958;13.080;2023-11-19T04:59:22;4.80;99.90
20315;DHT22;10315;50.958;13.080;2023-11-19T05:09:25;4.90;99.90
20315;DHT22;10315;50.958;13.080;2023-11-19T05:19:27;5.30;99.90
20315;DHT22;10315;50.958;13.080;2023-11-19T05:29:30;5.40;99.90
20315;DHT22;10315;50.958;13.080;2023-11-19T05:39:32;5.60;99.90
20315;DHT22;10315;50.958;13.080;2023-11-19T05:49:35;5.70;99.90
20315;DHT22;10315;50.958;13.080;2023-11-19T05:59:37;5.90;99.90
20315;DHT22;10315;50.958;13.080;2023-11-19T06:09:39;6.00;99.90
20315;DHT22;10315;50.958;13.080;2023-11-19T06:19:41;6.10;99.90
20315;DHT22;10315;50.958;13.080;2023-11-19T06:29:44;6.20;99.90
20315;DHT22;10315;50.958;13.080;2023-11-19T06:39:46;6.50;99.90
20315;DHT22;10315;50.958;13.080;2023-11-19T06:49:49;6.70;99.90
20315;DHT22;10315;50.958;13.080;2023-11-19T06:59:51;6.80;99.90
20315;DHT22;10315;50.958;13.080;2023-11-19T07:09:53;7.00;99.90
20315;DHT22;10315;50.958;13.080;2023-11-19T07:19:55;7.20;99.90
20315;DHT22;10315;50.958;13.080;2023-11-19T07:30:01;7.40;99.90
20315;DHT22;10315;50.958;13.080;2023-11-19T07:40:03;7.50;99.90
20315;DHT22;10315;50.958;13.080;2023-11-19T07:50:07;7.60;99.90
20315;DHT22;10315;50.958;13.080;2023-11-19T08:00:11;7.70;99.90
20315;DHT22;10315;50.958;13.080;2023-11-19T08:10:15;7.90;99.90
20315;DHT22;10315;50.958;13.080;2023-11-19T08:20:16;7.90;99.90
20315;DHT22;10315;50.958;13.080;2023-11-19T08:30:19;8.20;99.90
20315;DHT22;10315;50.958;13.080;2023-11-19T08:40:21;8.30;99.90
20315;DHT22;10315;50.958;13.080;2023-11-19T08:50:24;8.40;99.90
20315;DHT22;10315;50.958;13.080;2023-11-19T09:00:26;8.60;99.90
20315;DHT22;10315;50.958;13.080;2023-11-19T09:10:29;8.90;99.90
20315;DHT22;10315;50.958;13.080;2023-11-19T09:20:30;9.00;99.90
20315;DHT22;10315;50.958;13.080;2023-11-19T09:30:40;9.10;99.90
20315;DHT22;10315;50.958;13.080;2023-11-19T09:40:41;9.30;99.90
20315;DHT22;10315;50.958;13.080;2023-11-19T09:50:44;9.70;99.90
20315;DHT22;10315;50.958;13.080;2023-11-19T10:00:47;9.80;99.90
20315;DHT22;10315;50.958;13.080;2023-11-19T10:10:51;9.70;99.90
20315;DHT22;10315;50.958;13.080;2023-11-19T10:20:53;9.90;99.90
20315;DHT22;10315;50.958;13.080;2023-11-19T10:30:57;10.10;99.90
20315;DHT22;10315;50.958;13.080;2023-11-19T10:40:59;9.90;99.90
20315;DHT22;10315;50.958;13.080;2023-11-19T10:51:05;10.00;99.90
20315;DHT22;10315;50.958;13.080;2023-11-19T11:01:11;10.10;99.90
20315;DHT22;10315;50.958;13.080;2023-11-19T11:11:16;10.10;99.90
20315;DHT22;10315;50.958;13.080;2023-11-19T11:21:23;10.30;99.90
20315;DHT22;10315;50.958;13.080;2023-11-19T11:31:36;10.50;99.90
20315;DHT22;10315;50.958;13.080;2023-11-19T11:41:38;10.60;99.90
20315;DHT22;10315;50.958;13.080;2023-11-19T11:52:03;11.80;99.90
20315;DHT22;10315;50.958;13.080;2023-11-19T12:02:08;12.50;99.90
20315;DHT22;10315;50.958;13.080;2023-11-19T12:12:20;13.80;99.90
20315;DHT22;10315;50.958;13.080;2023-11-19T12:22:24;14.70;99.90
20315;DHT22;10315;50.958;13.080;2023-11-19T12:32:37;14.30;99.90
20315;DHT22;10315;50.958;13.080;2023-11-19T12:42:39;14.70;99.90
20315;DHT22;10315;50.958;13.080;2023-11-19T12:52:43;14.00;99.90
20315;DHT22;10315;50.958;13.080;2023-11-19T13:02:45;13.30;99.90
20315;DHT22;10315;50.958;13.080;2023-11-19T13:13:01;12.70;99.90
20315;DHT22;10315;50.958;13.080;2023-11-19T13:23:05;11.90;99.90
20315;DHT22;10315;50.958;13.080;2023-11-19T13:33:09;11.90;99.90
20315;DHT22;10315;50.958;13.080;2023-11-19T13:43:12;12.20;99.90
20315;DHT22;10315;50.958;13.080;2023-11-19T13:53:15;12.00;99.90
20315;DHT22;10315;50.958;13.080;2023-11-19T14:03:17;11.20;99.90
20315;DHT22;10315;50.958;13.080;2023-11-19T14:13:20;11.30;99.90
20315;DHT22;10315;50.958;13.080;2023-11-19T14:23:22;11.10;99.90
20315;DHT22;10315;50.958;13.080;2023-11-19T14:33:26;10.80;99.90
20315;DHT22;10315;50.958;13.080;2023-11-19T14:43:27;10.60;99.90
20315;DHT22;10315;50.958;13.080;2023-11-19T14:53:30;10.20;99.90
20315;DHT22;10315;50.958;13.080;2023-11-19T15:03:32;10.00;99.90
20315;DHT22;10315;50.958;13.080;2023-11-19T15:13:35;9.90;99.90
20315;DHT22;10315;50.958;13.080;2023-11-19T15:23:38;9.70;99.90
20315;DHT22;10315;50.958;13.080;2023-11-19T15:33:42;9.60;99.90
20315;DHT22;10315;50.958;13.080;2023-11-19T15:43:44;9.90;99.90
20315;DHT22;10315;50.958;13.080;2023-11-19T15:53:47;9.70;99.90
20315;DHT22;10315;50.958;13.080;2023-11-19T16:03:49;9.50;99.90
20315;DHT22;10315;50.958;13.080;2023-11-19T16:13:53;9.30;99.90
20315;DHT22;10315;50.958;13.080;2023-11-19T16:23:55;9.10;99.90
20315;DHT22;10315;50.958;13.080;2023-11-19T16:33:58;9.10;99.90
20315;DHT22;10315;50.958;13.080;2023-11-19T16:44:01;9.20;99.90
20315;DHT22;10315;50.958;13.080;2023-11-19T16:54:04;9.20;99.90
20315;DHT22;10315;50.958;13.080;2023-11-19T17:04:06;9.10;99.90
20315;DHT22;10315;50.958;13.080;2023-11-19T17:14:10;9.00;99.90
20315;DHT22;10315;50.958;13.080;2023-11-19T17:24:11;8.80;99.90
20315;DHT22;10315;50.958;13.080;2023-11-19T17:34:15;9.00;99.90
20315;DHT22;10315;50.958;13.080;2023-11-19T17:44:18;9.20;99.90
20315;DHT22;10315;50.958;13.080;2023-11-19T17:54:21;8.70;99.90
20315;DHT22;10315;50.958;13.080;2023-11-19T18:04:24;8.60;99.90
20315;DHT22;10315;50.958;13.080;2023-11-19T18:14:28;8.50;99.90
20315;DHT22;10315;50.958;13.080;2023-11-19T18:24:29;8.30;99.90
20315;DHT22;10315;50.958;13.080;2023-11-19T18:34:32;8.30;99.90
20315;DHT22;10315;50.958;13.080;2023-11-19T18:44:34;8.70;99.90
20315;DHT22;10315;50.958;13.080;2023-11-19T18:54:37;9.10;99.90
20315;DHT22;10315;50.958;13.080;2023-11-19T19:04:39;9.20;99.90
20315;DHT22;10315;50.958;13.080;2023-11-19T19:14:42;9.20;99.90
20315;DHT22;10315;50.958;13.080;2023-11-19T19:24:44;9.40;99.90
20315;DHT22;10315;50.958;13.080;2023-11-19T19:34:47;9.20;99.90
20315;DHT22;10315;50.958;13.080;2023-11-19T19:44:49;9.00;99.90
20315;DHT22;10315;50.958;13.080;2023-11-19T19:54:52;8.90;99.90
20315;DHT22;10315;50.958;13.080;2023-11-19T20:04:54;9.00;99.90
20315;DHT22;10315;50.958;13.080;2023-11-19T20:14:57;8.90;99.90
20315;DHT22;10315;50.958;13.080;2023-11-19T20:25:01;8.70;99.90
20315;DHT22;10315;50.958;13.080;2023-11-19T20:35:05;8.90;99.90
20315;DHT22;10315;50.958;13.080;2023-11-19T20:45:08;8.80;99.90
20315;DHT22;10315;50.958;13.080;2023-11-19T20:55:11;8.60;99.90
20315;DHT22;10315;50.958;13.080;2023-11-19T21:05:14;8.50;99.90
20315;DHT22;10315;50.958;13.080;2023-11-19T21:15:17;8.60;99.90
20315;DHT22;10315;50.958;13.080;2023-11-19T21:25:20;8.70;99.90
20315;DHT22;10315;50.958;13.080;2023-11-19T21:35:23;8.80;99.90
20315;DHT22;10315;50.958;13.080;2023-11-19T21:45:24;8.90;99.90
20315;DHT22;10315;50.958;13.080;2023-11-19T21:55:27;9.20;99.90
20315;DHT22;10315;50.958;13.080;2023-11-19T22:05:30;9.10;99.90
20315;DHT22;10315;50.958;13.080;2023-11-19T22:15:33;9.30;99.90
20315;DHT22;10315;50.958;13.080;2023-11-19T22:25:34;9.30;99.90
20315;DHT22;10315;50.958;13.080;2023-11-19T22:35:38;9.30;99.90
20315;DHT22;10315;50.958;13.080;2023-11-19T22:45:39;9.30;99.90
20315;DHT22;10315;50.958;13.080;2023-11-19T22:55:42;9.30;99.90
20315;DHT22;10315;50.958;13.080;2023-11-19T23:05:44;9.40;99.90
20315;DHT22;10315;50.958;13.080;2023-11-19T23:15:47;9.40;99.90
20315;DHT22;10315;50.958;13.080;2023-11-19T23:25:49;9.20;99.90
20315;DHT22;10315;50.958;13.080;2023-11-19T23:35:52;9.20;99.90
20315;DHT22;10315;50.958;13.080;2023-11-19T23:45:54;8.70;99.90
20315;DHT22;10315;50.958;13.080;2023-11-19T23:55:57;8.40;99.90
